Time;durP1;ratioP1;P1;durP2;ratioP2;P2;SDS_P1;SDS_P2;PMS_P1;PMS_P2;Temp;Humidity;BMP_temperature;BMP_pressure;BME280_temperature;BME280_humidity;BME280_pressure;Samples;Min_cycle;Max_cycle;Signal;HPM_P1;HPM_P2
2021/11/06 00:00:25;;;;;;;51.85;30.83;;;;;;;9.65;74.54;94006.66;5092607;28;20062;-60
2021/11/06 00:02:51;;;;;;;39.42;24.23;;;;;;;9.62;74.75;94013.22;5092938;28;20031;-59
2021/11/06 00:05:16;;;;;;;32.55;18.75;;;;;;;9.73;74.83;94007.50;5092844;28;20417;-59
2021/11/06 00:07:42;;;;;;;29.27;16.65;;;;;;;9.88;74.69;94010.47;5092442;28;20421;-61
2021/11/06 00:10:09;;;;;;;52.83;22.42;;;;;;;9.52;74.90;94010.13;5093092;28;20028;-58
2021/11/06 00:12:36;;;;;;;32.28;16.15;;;;;;;9.48;74.29;94011.72;5111952;28;20031;-56
2021/11/06 00:15:02;;;;;;;27.85;17.15;;;;;;;9.56;73.84;94012.56;5112364;28;20496;-57
2021/11/06 00:17:28;;;;;;;23.50;14.73;;;;;;;9.45;74.08;94026.53;5113062;28;20397;-59
2021/11/06 00:19:53;;;;;;;32.63;16.20;;;;;;;9.59;73.68;94026.06;5112553;28;20024;-58
2021/11/06 00:22:19;;;;;;;28.15;17.88;;;;;;;9.65;73.31;94025.94;5112680;28;20032;-58
2021/11/06 00:24:44;;;;;;;32.25;17.60;;;;;;;9.67;73.91;94028.91;5112851;28;20023;-59
2021/11/06 00:27:10;;;;;;;42.47;22.30;;;;;;;9.65;73.60;94031.47;5112465;28;20043;-54
2021/11/06 00:29:35;;;;;;;67.90;32.00;;;;;;;9.72;72.99;94036.34;5112314;28;20528;-52
2021/11/06 00:32:01;;;;;;;33.17;19.58;;;;;;;9.34;73.86;94043.25;5112648;27;20043;-52
2021/11/06 00:34:26;;;;;;;25.00;16.27;;;;;;;9.36;74.65;94035.22;5112754;28;20443;-54
2021/11/06 00:36:52;;;;;;;32.55;18.48;;;;;;;9.40;74.98;94025.38;5110321;28;20027;-53
2021/11/06 00:39:17;;;;;;;33.75;17.80;;;;;;;9.47;74.71;94027.50;5092295;28;20020;-52
2021/11/06 00:41:43;;;;;;;32.30;18.02;;;;;;;9.53;75.27;94024.66;5091885;28;20554;-54
2021/11/06 00:44:08;;;;;;;22.85;14.20;;;;;;;9.60;73.96;94011.00;5091815;28;20020;-53
2021/11/06 00:46:34;;;;;;;34.30;18.10;;;;;;;9.52;73.72;94017.66;5092205;28;20023;-54
2021/11/06 00:48:59;;;;;;;36.22;19.15;;;;;;;9.65;73.79;94020.44;5095632;28;20072;-53
2021/11/06 00:51:25;;;;;;;41.85;19.77;;;;;;;9.70;73.44;94016.84;5112051;28;20026;-55
2021/11/06 00:53:50;;;;;;;33.42;18.92;;;;;;;9.44;74.28;94016.81;5112296;28;20024;-54
2021/11/06 00:56:16;;;;;;;29.23;17.77;;;;;;;9.23;76.09;94016.66;5111926;28;20032;-55
2021/11/06 00:58:41;;;;;;;33.50;18.27;;;;;;;9.31;76.06;94017.53;5111908;28;20026;-53
2021/11/06 01:01:08;;;;;;;35.80;18.40;;;;;;;9.47;75.88;94024.00;5112162;28;20031;-55
2021/11/06 01:03:33;;;;;;;29.88;16.75;;;;;;;9.33;75.85;94019.75;5112146;28;20019;-56
2021/11/06 01:05:59;;;;;;;23.80;14.90;;;;;;;9.31;75.36;94011.28;5112048;28;20550;-54
2021/11/06 01:08:24;;;;;;;23.52;13.35;;;;;;;9.42;75.08;94017.31;5111954;28;20501;-58
2021/11/06 01:10:50;;;;;;;19.80;14.38;;;;;;;9.57;74.69;94020.31;5112020;28;20480;-55
2021/11/06 01:13:17;;;;;;;27.02;16.48;;;;;;;9.70;73.37;94016.84;5103399;28;20020;-57
2021/11/06 01:15:42;;;;;;;25.58;14.95;;;;;;;9.78;73.45;94010.16;5107900;28;20034;-57
2021/11/06 01:18:08;;;;;;;25.42;15.35;;;;;;;9.63;73.94;94011.94;5111515;27;20016;-56
2021/11/06 01:20:33;;;;;;;27.33;14.68;;;;;;;9.45;75.13;94013.50;5111428;28;20027;-57
2021/11/06 01:22:59;;;;;;;26.27;14.38;;;;;;;9.47;74.75;94015.72;5109239;28;20024;-56
2021/11/06 01:25:24;;;;;;;24.00;13.68;;;;;;;9.60;74.29;94018.50;5111733;28;20030;-57
2021/11/06 01:27:50;;;;;;;20.15;13.93;;;;;;;9.36;75.07;94022.19;5111258;28;20509;-57
2021/11/06 01:30:16;;;;;;;29.27;12.77;;;;;;;9.15;75.58;94030.31;5106266;28;20030;-57
2021/11/06 01:32:44;;;;;;;18.15;10.60;;;;;;;9.40;74.43;94030.88;5102640;28;20412;-57
2021/11/06 01:35:11;;;;;;;20.15;11.48;;;;;;;9.63;73.36;94039.53;5111210;28;20020;-58
2021/11/06 01:37:37;;;;;;;26.80;11.38;;;;;;;9.63;73.57;94053.31;5111125;28;20024;-57
2021/11/06 01:40:06;;;;;;;16.60;11.18;;;;;;;9.18;75.05;94050.56;5111103;28;20016;-58
2021/11/06 01:42:31;;;;;;;19.65;11.90;;;;;;;9.10;76.04;94050.41;5111099;28;20579;-58
2021/11/06 01:44:57;;;;;;;18.45;10.15;;;;;;;9.23;75.10;94052.47;5111398;28;20110;-57
2021/11/06 01:47:22;;;;;;;15.48;9.07;;;;;;;9.13;75.97;94054.88;5110990;28;20055;-58
2021/11/06 01:49:48;;;;;;;17.25;9.88;;;;;;;9.21;75.94;94055.00;5110256;28;20019;-57
2021/11/06 01:52:13;;;;;;;19.00;9.75;;;;;;;9.05;76.30;94050.50;5110905;27;20027;-58
2021/11/06 01:54:39;;;;;;;22.65;10.73;;;;;;;9.18;76.07;94048.53;5110932;28;20055;-58
2021/11/06 01:57:04;;;;;;;18.83;10.38;;;;;;;9.43;75.25;94040.13;5110878;28;20080;-57
2021/11/06 01:59:30;;;;;;;15.68;10.77;;;;;;;9.36;75.10;94038.72;5111113;28;20492;-57
2021/11/06 02:01:58;;;;;;;23.85;12.13;;;;;;;9.55;74.34;94044.91;5110672;28;20020;-57
2021/11/06 02:04:23;;;;;;;21.70;12.50;;;;;;;9.55;73.55;94044.91;5110834;28;20589;-57
2021/11/06 02:06:49;;;;;;;26.02;14.23;;;;;;;9.52;73.78;94059.00;5110599;28;20020;-57
2021/11/06 02:09:14;;;;;;;25.15;15.02;;;;;;;9.48;74.24;94069.59;5111010;28;20043;-57
2021/11/06 02:11:40;;;;;;;22.17;14.63;;;;;;;9.28;74.78;94068.16;5110972;28;20061;-57
2021/11/06 02:14:05;;;;;;;25.25;15.95;;;;;;;9.05;75.31;94047.75;5110122;28;20019;-57
2021/11/06 02:16:32;;;;;;;21.90;15.13;;;;;;;8.96;76.72;94065.41;5110687;28;20118;-57
2021/11/06 02:18:59;;;;;;;21.58;14.20;;;;;;;9.08;76.72;94069.47;5110520;28;20040;-56
2021/11/06 02:21:25;;;;;;;19.45;13.50;;;;;;;8.81;77.64;94059.63;5110890;27;20030;-55
2021/11/06 02:23:51;;;;;;;28.60;13.55;;;;;;;8.88;78.49;94063.78;5110740;28;20020;-58
2021/11/06 02:26:19;;;;;;;23.90;13.73;;;;;;;9.10;78.08;94061.44;5099728;28;20589;-57
2021/11/06 02:28:53;;;;;;;19.98;11.77;;;;;;;9.02;78.33;94048.78;5090410;28;20111;-58
2021/11/06 02:31:19;;;;;;;20.33;12.68;;;;;;;9.12;78.48;94060.91;5090447;28;20106;-58
2021/11/06 02:33:44;;;;;;;22.60;13.93;;;;;;;9.19;76.94;94052.03;5090088;28;20098;-58
2021/11/06 02:36:10;;;;;;;24.75;11.88;;;;;;;9.27;77.33;94052.16;5090314;28;20028;-57
2021/11/06 02:38:35;;;;;;;20.05;12.10;;;;;;;9.37;75.94;94051.25;5090278;28;20090;-57
2021/11/06 02:41:01;;;;;;;18.40;12.45;;;;;;;9.57;75.79;94058.19;5090339;28;20520;-56
2021/11/06 02:43:27;;;;;;;21.67;12.63;;;;;;;9.48;76.27;94067.59;5090345;28;20032;-54
2021/11/06 02:45:52;;;;;;;22.90;12.45;;;;;;;9.62;75.81;94055.31;5089929;28;20626;-56
2021/11/06 02:48:18;;;;;;;23.08;12.10;;;;;;;9.50;76.82;94053.28;5090116;28;20063;-57
2021/11/06 02:50:43;;;;;;;26.45;11.20;;;;;;;9.65;76.44;94050.75;5089824;28;20024;-55
2021/11/06 02:53:09;;;;;;;19.75;11.05;;;;;;;9.60;76.20;94044.06;5089870;28;20111;-56
2021/11/06 02:55:35;;;;;;;15.23;11.07;;;;;;;9.46;76.38;94031.56;5089795;28;20023;-57
2021/11/06 02:58:00;;;;;;;19.50;10.95;;;;;;;9.74;75.86;94058.63;5090149;28;20028;-57
2021/11/06 03:00:27;;;;;;;20.20;11.30;;;;;;;9.91;74.94;94067.34;5091494;28;20540;-59
2021/11/06 03:02:54;;;;;;;27.48;12.13;;;;;;;9.98;74.30;94080.50;5094107;28;20031;-57
2021/11/06 03:05:20;;;;;;;23.05;12.25;;;;;;;9.84;75.38;94084.50;5094133;28;20016;-57
2021/11/06 03:07:46;;;;;;;17.55;11.13;;;;;;;9.97;75.28;94101.06;5093818;28;20028;-57
2021/11/06 03:10:12;;;;;;;19.05;11.80;;;;;;;9.87;74.71;94105.53;5093885;28;20075;-59
2021/11/06 03:12:37;;;;;;;22.98;9.48;;;;;;;9.29;76.60;94110.25;5096970;28;20020;-59
2021/11/06 03:15:04;;;;;;;15.27;8.05;;;;;;;9.16;77.73;94100.66;5113878;27;20042;-61
2021/11/06 03:17:30;;;;;;;20.40;7.80;;;;;;;9.04;80.18;94093.06;5114112;28;20075;-60
2021/11/06 03:19:55;;;;;;;16.20;9.38;;;;;;;9.22;80.26;94094.31;5113726;28;20133;-59
2021/11/06 03:22:21;;;;;;;19.60;8.52;;;;;;;9.42;79.71;94097.25;5104949;28;20024;-59
2021/11/06 03:24:46;;;;;;;19.80;11.98;;;;;;;9.14;79.41;94081.16;5093351;28;20024;-58
2021/11/06 03:27:12;;;;;;;48.55;21.65;;;;;;;9.28;78.11;94094.97;5093105;28;20076;-56
2021/11/06 03:29:38;;;;;;;38.97;21.27;;;;;;;9.35;77.30;94081.34;5093340;28;20074;-56
2021/11/06 03:32:05;;;;;;;36.22;19.70;;;;;;;9.42;77.20;94091.72;5093529;28;20035;-55
2021/11/06 03:34:31;;;;;;;34.60;17.67;;;;;;;9.22;76.49;94056.50;5093278;28;20081;-56
2021/11/06 03:36:56;;;;;;;32.60;17.95;;;;;;;9.48;76.59;94088.91;5093129;28;20035;-60
2021/11/06 03:39:22;;;;;;;34.78;18.52;;;;;;;8.96;77.50;94079.19;5093276;28;20032;-61
2021/11/06 03:41:47;;;;;;;34.25;18.60;;;;;;;9.22;77.80;94110.84;5091874;28;20408;-61
2021/11/06 03:44:13;;;;;;;32.47;19.90;;;;;;;9.02;78.39;94120.41;5093268;28;20570;-60
2021/11/06 03:46:38;;;;;;;35.28;19.33;;;;;;;8.71;78.56;94101.81;5093043;28;20457;-61
2021/11/06 03:49:04;;;;;;;24.33;14.68;;;;;;;8.58;80.31;94113.47;5091940;28;20081;-60
2021/11/06 03:51:30;;;;;;;28.65;14.38;;;;;;;8.52;81.39;94112.81;5093398;28;20115;-61
2021/11/06 03:53:56;;;;;;;24.58;14.55;;;;;;;8.49;81.50;94083.56;5092966;28;20085;-57
2021/11/06 03:56:22;;;;;;;25.10;14.45;;;;;;;8.82;80.26;94102.41;5092806;28;20038;-58
2021/11/06 03:58:48;;;;;;;24.02;14.68;;;;;;;9.04;79.33;94102.09;5092727;28;20024;-55
2021/11/06 04:01:13;;;;;;;25.77;14.05;;;;;;;8.92;78.67;94086.97;5092687;28;20527;-54
2021/11/06 04:03:39;;;;;;;33.92;19.15;;;;;;;8.91;79.51;94115.78;5092740;28;20119;-55
2021/11/06 04:06:04;;;;;;;32.53;16.63;;;;;;;8.94;79.19;94098.22;5092738;28;20028;-56
2021/11/06 04:08:30;;;;;;;38.83;19.58;;;;;;;9.07;78.72;94101.03;5092727;28;20024;-57
2021/11/06 04:10:55;;;;;;;39.83;22.02;;;;;;;9.22;78.66;94095.06;5092830;28;20482;-54
2021/11/06 04:13:21;;;;;;;50.15;29.08;;;;;;;9.26;77.52;94100.28;5100947;28;20034;-53
2021/11/06 04:15:47;;;;;;;39.92;27.05;;;;;;;9.05;77.43;94072.53;5112368;28;20466;-56
2021/11/06 04:18:12;;;;;;;38.25;22.98;;;;;;;9.02;78.86;94109.38;5106957;28;20092;-55
2021/11/06 04:20:38;;;;;;;36.30;20.90;;;;;;;8.94;79.08;94103.72;5092349;28;20039;-56
2021/11/06 04:23:03;;;;;;;37.03;19.42;;;;;;;9.08;78.79;94088.75;5092615;28;20161;-58
2021/11/06 04:25:29;;;;;;;30.90;19.60;;;;;;;9.25;78.62;94096.03;5092580;28;20473;-57
2021/11/06 04:27:55;;;;;;;36.80;22.52;;;;;;;9.00;79.45;94085.13;5092016;28;20051;-58
2021/11/06 04:30:20;;;;;;;30.92;20.08;;;;;;;8.85;81.09;94089.59;5092154;28;20059;-57
2021/11/06 04:32:45;;;;;;;35.25;24.13;;;;;;;8.98;81.05;94100.69;5092087;28;20027;-57
2021/11/06 04:35:11;;;;;;;35.03;19.58;;;;;;;9.05;80.61;94108.34;5092156;28;20036;-58
2021/11/06 04:37:37;;;;;;;28.17;15.40;;;;;;;9.24;78.40;94111.81;5091947;28;20141;-59
2021/11/06 04:40:05;;;;;;;27.65;16.58;;;;;;;9.38;77.42;94115.34;5091869;28;20027;-58
2021/11/06 04:42:31;;;;;;;30.48;16.83;;;;;;;9.36;77.19;94134.41;5092162;28;20032;-59
2021/11/06 04:44:56;;;;;;;27.42;17.27;;;;;;;9.29;77.71;94121.28;5091826;28;20028;-60
2021/11/06 04:47:22;;;;;;;31.80;21.38;;;;;;;9.22;78.19;94124.63;5091978;28;20020;-59
2021/11/06 04:49:48;;;;;;;47.95;23.48;;;;;;;9.10;78.28;94088.97;5090820;28;20020;-57
2021/11/06 04:52:14;;;;;;;30.90;19.15;;;;;;;9.03;79.64;94103.34;5092010;28;20123;-58
2021/11/06 04:54:39;;;;;;;34.15;21.33;;;;;;;9.29;79.27;94127.50;5091313;28;20028;-58
2021/11/06 04:57:05;;;;;;;35.53;21.65;;;;;;;9.42;78.73;94124.06;5091444;28;20035;-58
2021/11/06 04:59:30;;;;;;;35.63;21.95;;;;;;;9.38;78.27;94124.38;5091653;28;20020;-58
2021/11/06 05:01:56;;;;;;;43.72;23.60;;;;;;;9.32;78.33;94104.44;5090207;28;20035;-58
2021/11/06 05:04:22;;;;;;;36.25;21.05;;;;;;;9.64;77.48;94129.97;5091744;28;20023;-56
2021/11/06 05:06:47;;;;;;;33.90;19.00;;;;;;;9.69;76.75;94129.13;5091348;28;20036;-57
2021/11/06 05:09:13;;;;;;;27.15;18.55;;;;;;;9.86;75.96;94124.09;5091611;28;20027;-57
2021/11/06 05:11:38;;;;;;;38.10;20.95;;;;;;;9.88;76.02;94120.78;5091390;28;20020;-58
2021/11/06 05:14:04;;;;;;;42.63;23.60;;;;;;;9.94;75.69;94115.91;5091502;28;20016;-58
2021/11/06 05:16:31;;;;;;;34.08;21.77;;;;;;;9.94;75.74;94124.19;5091323;28;20024;-58
2021/11/06 05:18:57;;;;;;;37.90;22.80;;;;;;;10.03;75.02;94104.47;5091321;28;20088;-59
2021/11/06 05:21:22;;;;;;;40.15;19.77;;;;;;;9.94;75.84;94119.41;5091430;28;20497;-59
2021/11/06 05:23:49;;;;;;;42.25;24.08;;;;;;;10.01;76.61;94137.34;5090150;28;20554;-59
2021/11/06 05:26:15;;;;;;;37.47;20.50;;;;;;;9.90;76.91;94160.38;5091056;28;20048;-56
2021/11/06 05:28:42;;;;;;;33.15;18.80;;;;;;;9.83;76.21;94154.75;5091044;28;20040;-56
2021/11/06 05:31:08;;;;;;;30.25;16.10;;;;;;;9.96;76.84;94174.09;5090963;28;20554;-55
2021/11/06 05:33:33;;;;;;;33.85;19.55;;;;;;;9.94;77.94;94182.88;5089744;28;20031;-57
2021/11/06 05:35:59;;;;;;;67.15;46.35;;;;;;;9.56;79.27;94189.75;5091039;28;20028;-57
2021/11/06 05:38:24;;;;;;;40.45;25.35;;;;;;;9.30;80.46;94202.66;5091249;28;20675;-55
2021/11/06 05:40:50;;;;;;;35.22;22.33;;;;;;;9.24;81.29;94213.75;5091135;28;20485;-57
2021/11/06 05:43:15;;;;;;;31.25;21.35;;;;;;;9.27;81.89;94223.00;5090745;28;20106;-54
2021/11/06 05:45:41;;;;;;;31.05;17.83;;;;;;;9.49;82.00;94244.72;5090804;28;20066;-58
2021/11/06 05:48:06;;;;;;;23.98;16.00;;;;;;;9.52;82.86;94241.69;5090462;28;20116;-57
2021/11/06 05:50:32;;;;;;;25.92;15.80;;;;;;;9.60;82.53;94222.53;5091018;28;20032;-57
2021/11/06 05:52:57;;;;;;;25.35;15.93;;;;;;;9.85;82.30;94241.19;5090617;28;20028;-58
2021/11/06 05:55:23;;;;;;;34.80;16.25;;;;;;;10.02;81.88;94246.44;5090654;28;20027;-58
2021/11/06 05:57:48;;;;;;;39.15;17.45;;;;;;;9.94;82.05;94234.53;5090881;28;20027;-58
2021/11/06 06:00:17;;;;;;;23.73;13.68;;;;;;;10.29;81.44;94252.78;5090414;28;20402;-58
2021/11/06 06:02:43;;;;;;;22.65;11.80;;;;;;;10.59;80.17;94259.53;5090583;28;20478;-58
2021/11/06 06:05:09;;;;;;;37.40;21.30;;;;;;;10.76;78.29;94259.25;5090743;28;20115;-55
2021/11/06 06:07:35;;;;;;;32.92;18.75;;;;;;;10.96;78.00;94263.41;5090274;28;20024;-53
2021/11/06 06:10:02;;;;;;;29.73;15.75;;;;;;;11.24;77.05;94261.56;5090592;28;20031;-54
2021/11/06 06:12:28;;;;;;;24.00;12.45;;;;;;;11.48;76.92;94263.31;5092408;28;20532;-54
2021/11/06 06:14:54;;;;;;;24.00;13.77;;;;;;;11.69;76.48;94264.19;5110555;28;20039;-52
2021/11/06 06:17:19;;;;;;;52.63;24.05;;;;;;;12.04;75.78;94265.66;5111021;28;20386;-57
2021/11/06 06:19:44;;;;;;;29.38;19.25;;;;;;;12.24;74.79;94272.47;5110593;28;20081;-58
2021/11/06 06:22:10;;;;;;;22.55;14.77;;;;;;;12.43;73.74;94275.78;5110550;28;20023;-55
2021/11/06 06:24:35;;;;;;;22.35;14.18;;;;;;;12.54;73.00;94273.47;5110814;28;20030;-57
2021/11/06 06:27:01;;;;;;;26.67;13.05;;;;;;;12.68;72.32;94274.13;5110315;28;20104;-56
2021/11/06 06:29:26;;;;;;;31.80;12.13;;;;;;;12.85;70.94;94263.38;5110575;28;20032;-60
2021/11/06 06:31:52;;;;;;;19.67;10.07;;;;;;;13.08;70.13;94285.72;5110455;28;20015;-57
2021/11/06 06:34:17;;;;;;;21.25;9.52;;;;;;;13.05;69.61;94273.69;5110354;28;20034;-59
2021/11/06 06:36:43;;;;;;;25.30;10.02;;;;;;;13.08;69.92;94280.19;5114189;28;20028;-59
2021/11/06 06:39:08;;;;;;;31.40;11.82;;;;;;;13.23;69.23;94281.00;5114798;28;20031;-60
2021/11/06 06:41:35;;;;;;;26.55;10.55;;;;;;;13.36;69.34;94263.53;5114534;28;20106;-59
2021/11/06 06:44:00;;;;;;;26.77;12.43;;;;;;;13.64;69.50;94285.66;5114389;27;20034;-60
2021/11/06 06:46:26;;;;;;;28.30;13.98;;;;;;;13.79;68.95;94291.28;5114810;28;20032;-59
2021/11/06 06:48:52;;;;;;;35.47;14.95;;;;;;;13.99;69.01;94287.59;5114258;28;20502;-60
2021/11/06 06:51:18;;;;;;;33.75;17.83;;;;;;;14.16;68.25;94292.69;5114260;28;20037;-59
2021/11/06 06:53:44;;;;;;;32.20;18.83;;;;;;;14.33;67.83;94299.22;5114260;28;20027;-59
2021/11/06 06:56:10;;;;;;;45.10;19.85;;;;;;;14.31;67.30;94282.34;5114434;28;20076;-60
2021/11/06 06:58:35;;;;;;;31.17;15.75;;;;;;;14.44;66.47;94287.00;5114207;28;20758;-60
2021/11/06 07:01:01;;;;;;;28.83;15.98;;;;;;;14.61;65.99;94303.88;5114407;28;20024;-60
2021/11/06 07:03:27;;;;;;;41.97;21.70;;;;;;;14.62;65.42;94294.22;5114397;28;20027;-60
2021/11/06 07:05:52;;;;;;;51.08;26.75;;;;;;;14.71;66.04;94306.84;5114429;28;20023;-61
2021/11/06 07:08:20;;;;;;;31.27;15.60;;;;;;;14.80;64.54;94306.28;5097977;28;20507;-60
2021/11/06 07:10:45;;;;;;;24.83;12.63;;;;;;;14.58;66.19;94309.78;5103198;28;20098;-60
2021/11/06 07:13:11;;;;;;;25.02;11.30;;;;;;;14.35;66.74;94310.53;5102244;28;20631;-60
2021/11/06 07:15:38;;;;;;;26.65;11.15;;;;;;;14.40;67.24;94311.66;5111878;28;20066;-59
2021/11/06 07:18:03;;;;;;;22.55;10.85;;;;;;;14.67;67.23;94315.56;5099541;28;20024;-56
2021/11/06 07:20:29;;;;;;;31.52;10.35;;;;;;;14.79;66.32;94325.00;5093562;28;20024;-60
2021/11/06 07:22:54;;;;;;;25.73;10.50;;;;;;;15.00;65.15;94319.28;5093477;28;20035;-60
2021/11/06 07:25:21;;;;;;;31.83;13.35;;;;;;;15.18;65.55;94316.09;5093752;28;20024;-60
2021/11/06 07:27:46;;;;;;;32.03;12.63;;;;;;;15.35;64.86;94307.19;5098643;28;20109;-66
2021/11/06 07:30:12;;;;;;;26.70;11.85;;;;;;;15.51;64.19;94324.59;5114669;28;20027;-66
2021/11/06 07:32:38;;;;;;;19.52;10.40;;;;;;;15.61;63.67;94331.84;5116922;28;20389;-67
2021/11/06 07:35:04;;;;;;;26.00;11.85;;;;;;;15.71;63.10;94327.16;5113642;28;20189;-62
2021/11/06 07:37:32;;;;;;;23.42;11.13;;;;;;;15.91;62.20;94326.16;5113797;28;20031;-68
2021/11/06 07:39:58;;;;;;;32.23;11.13;;;;;;;16.35;60.97;94323.00;5113391;28;20034;-68
2021/11/06 07:42:25;;;;;;;21.58;10.50;;;;;;;17.07;58.10;94303.34;5113816;28;20024;-62
2021/11/06 07:44:51;;;;;;;19.75;10.80;;;;;;;18.16;54.44;94336.13;5111116;28;20432;-65
2021/11/06 07:47:16;;;;;;;29.67;9.55;;;;;;;19.04;53.07;94324.09;5090284;28;20038;-68
2021/11/06 07:49:41;;;;;;;17.92;8.30;;;;;;;19.90;48.93;94322.25;5090990;28;20050;-68
2021/11/06 07:52:07;;;;;;;18.77;8.43;;;;;;;20.42;47.08;94324.63;5090689;28;20516;-68
2021/11/06 07:54:32;;;;;;;22.13;7.78;;;;;;;20.61;46.89;94325.31;5090783;28;20718;-68
2021/11/06 07:56:58;;;;;;;21.67;9.68;;;;;;;20.62;45.93;94326.78;5090687;28;20570;-68
2021/11/06 07:59:24;;;;;;;26.50;8.73;;;;;;;20.54;46.09;94323.41;5090580;28;20421;-68
2021/11/06 08:01:50;;;;;;;24.23;9.13;;;;;;;20.32;45.88;94319.00;5104844;28;20110;-68
2021/11/06 08:04:15;;;;;;;28.42;10.30;;;;;;;20.05;47.01;94319.16;5111003;28;20081;-63
2021/11/06 08:06:42;;;;;;;22.45;9.88;;;;;;;19.65;47.91;94318.97;5098129;28;20020;-66
2021/11/06 08:09:07;;;;;;;20.83;9.85;;;;;;;19.20;48.65;94309.28;5090564;28;20090;-67
2021/11/06 08:11:33;;;;;;;26.60;9.43;;;;;;;18.60;50.46;94293.44;5108085;28;20150;-66
2021/11/06 08:13:58;;;;;;;22.80;10.27;;;;;;;18.72;50.62;94311.91;5108788;28;20076;-65
2021/11/06 08:16:24;;;;;;;23.60;9.82;;;;;;;18.68;50.61;94308.06;5100969;28;20428;-66
2021/11/06 08:18:53;;;;;;;22.40;10.00;;;;;;;18.64;50.90;94294.50;5092014;28;20016;-65
2021/11/06 08:21:18;;;;;;;23.88;9.27;;;;;;;18.57;50.57;94291.81;5095953;28;20031;-66
2021/11/06 08:23:44;;;;;;;24.02;8.88;;;;;;;18.61;50.62;94300.50;5111134;28;20031;-65
2021/11/06 08:26:10;;;;;;;19.90;8.43;;;;;;;18.69;51.85;94295.56;5111073;27;20024;-65
2021/11/06 08:28:35;;;;;;;20.55;8.65;;;;;;;18.90;50.20;94284.59;5111924;28;20119;-65
2021/11/06 08:31:01;;;;;;;20.42;8.07;;;;;;;19.20;49.90;94297.34;5111563;28;20055;-64
2021/11/06 08:33:31;;;;;;;18.10;8.38;;;;;;;19.66;49.18;94300.84;5111571;28;20397;-66
2021/11/06 08:35:57;;;;;;;23.20;9.60;;;;;;;19.77;48.02;94283.47;5111172;28;20031;-65
2021/11/06 08:38:22;;;;;;;18.35;9.57;;;;;;;20.06;48.37;94309.41;5110619;28;20028;-64
2021/11/06 08:40:48;;;;;;;16.98;7.97;;;;;;;20.14;47.73;94309.28;5111109;28;20511;-65
2021/11/06 08:43:13;;;;;;;21.23;8.65;;;;;;;20.22;46.51;94293.06;5111128;28;20080;-64
2021/11/06 08:45:39;;;;;;;27.52;10.45;;;;;;;20.49;46.61;94323.72;5111314;27;20462;-65
2021/11/06 08:48:05;;;;;;;18.08;9.00;;;;;;;20.79;45.09;94320.97;5111906;28;20028;-65
2021/11/06 08:50:31;;;;;;;21.90;8.20;;;;;;;21.43;44.21;94318.34;5112458;28;20089;-66
2021/11/06 08:52:57;;;;;;;14.27;8.10;;;;;;;22.16;43.02;94326.75;5112457;28;20027;-67
2021/11/06 08:55:24;;;;;;;20.55;11.38;;;;;;;22.43;41.84;94332.75;5112461;28;20466;-66
2021/11/06 08:57:50;;;;;;;25.98;12.23;;;;;;;22.31;41.96;94332.69;5112074;28;20022;-66
2021/11/06 09:00:25;;;;;;;28.48;11.57;;;;;;;22.41;41.68;94341.06;5112274;28;20487;-66
2021/11/06 09:02:51;;;;;;;26.50;10.77;;;;;;;22.33;41.71;94320.81;5111024;28;20024;-67
2021/11/06 09:05:17;;;;;;;20.15;11.23;;;;;;;22.75;41.59;94334.84;5108907;28;20031;-67
2021/11/06 09:07:42;;;;;;;18.73;8.88;;;;;;;21.92;42.03;94337.16;5107791;28;20024;-66
2021/11/06 09:10:14;;;;;;;24.95;9.60;;;;;;;22.66;41.91;94330.03;5098193;28;20028;-65
2021/11/06 09:12:40;;;;;;;18.60;9.10;;;;;;;23.76;40.45;94343.84;5094791;28;20015;-67
2021/11/06 09:15:06;;;;;;;14.02;8.27;;;;;;;24.30;38.85;94343.50;5109287;28;20087;-69
2021/11/06 09:17:31;;;;;;;21.30;8.75;;;;;;;24.42;36.86;94341.38;5098926;28;20111;-67
2021/11/06 09:19:57;;;;;;;17.90;10.27;;;;;;;24.22;37.30;94337.38;5093162;28;20429;-67
2021/11/06 09:22:23;;;;;;;23.25;9.77;;;;;;;24.23;38.08;94333.97;5089019;28;20028;-67
2021/11/06 09:24:49;;;;;;;22.30;11.18;;;;;;;24.47;38.38;94323.31;5088764;28;20036;-64
2021/11/06 09:27:16;;;;;;;24.27;9.82;;;;;;;24.51;38.17;94324.28;5087481;28;20790;-66
2021/11/06 09:29:43;;;;;;;17.70;8.95;;;;;;;24.58;38.23;94328.88;5087453;28;20040;-67
2021/11/06 09:32:09;;;;;;;17.10;8.02;;;;;;;24.57;37.44;94323.88;5087422;28;20562;-65
2021/11/06 09:34:35;;;;;;;15.70;9.25;;;;;;;24.51;37.90;94312.25;5087712;28;20031;-65
2021/11/06 09:37:00;;;;;;;23.70;14.63;;;;;;;24.51;38.10;94310.16;5087693;28;20020;-65
2021/11/06 09:39:26;;;;;;;22.95;9.73;;;;;;;24.48;38.55;94302.91;5086781;28;20023;-64
2021/11/06 09:41:51;;;;;;;15.48;8.48;;;;;;;24.86;37.25;94287.41;5087135;28;20028;-67
2021/11/06 09:44:17;;;;;;;22.98;8.02;;;;;;;25.55;36.16;94300.28;5088174;28;20016;-66
2021/11/06 09:46:42;;;;;;;26.60;8.50;;;;;;;26.00;35.29;94298.34;5088621;28;20035;-67
2021/11/06 09:49:08;;;;;;;24.63;9.35;;;;;;;26.46;34.59;94297.09;5087842;28;20020;-64
2021/11/06 09:51:33;;;;;;;31.27;9.82;;;;;;;26.66;34.60;94297.34;5100690;27;20435;-63
2021/11/06 09:53:59;;;;;;;19.60;9.00;;;;;;;26.94;33.17;94298.72;5090026;28;20028;-67
2021/11/06 09:56:27;;;;;;;26.35;10.23;;;;;;;27.42;31.76;94288.84;5090971;28;20023;-68
2021/11/06 09:58:56;;;;;;;20.17;9.80;;;;;;;27.73;31.83;94303.00;5098427;28;20397;-67
2021/11/06 10:01:22;;;;;;;19.30;9.07;;;;;;;27.69;31.30;94297.91;5098518;28;20049;-65
2021/11/06 10:03:48;;;;;;;22.20;9.63;;;;;;;28.39;31.26;94263.25;5098265;28;20547;-63
2021/11/06 10:06:24;;;;;;;22.60;10.65;;;;;;;28.89;30.70;94300.78;5096249;28;20023;-65
2021/11/06 10:08:52;;;;;;;16.45;8.88;;;;;;;28.90;29.68;94285.91;5095964;28;20081;-66
2021/11/06 10:11:25;;;;;;;21.63;9.57;;;;;;;28.83;30.31;94286.31;5097336;28;20035;-65
2021/11/06 10:14:09;;;;;;;20.00;8.90;;;;;;;28.63;30.59;94283.41;5096649;28;20408;-65
2021/11/06 10:16:55;;;;;;;18.92;7.90;;;;;;;28.13;31.44;94287.72;5102119;28;20415;-66
2021/11/06 10:19:25;;;;;;;21.40;9.43;;;;;;;27.75;31.10;94278.28;5097237;28;20524;-66
2021/11/06 10:22:10;;;;;;;15.38;8.05;;;;;;;26.86;33.59;94281.31;5094783;28;20068;-67
2021/11/06 10:24:48;;;;;;;20.30;9.43;;;;;;;27.27;31.80;94281.06;5095783;28;20789;-67
2021/11/06 10:27:31;;;;;;;24.17;7.93;;;;;;;27.48;32.18;94284.19;5095634;28;20043;-68
2021/11/06 10:30:11;;;;;;;19.58;12.15;;;;;;;27.51;32.49;94280.06;5096833;28;20497;-69
2021/11/06 10:32:38;;;;;;;31.75;13.45;;;;;;;27.43;32.21;94274.03;5096585;28;20035;-67
2021/11/06 10:35:20;;;;;;;16.85;9.52;;;;;;;27.48;32.73;94272.13;5101563;28;20032;-69
2021/11/06 10:37:48;;;;;;;15.60;8.30;;;;;;;27.18;32.71;94257.28;5097489;28;20073;-65
2021/11/06 10:40:16;;;;;;;19.25;9.57;;;;;;;26.75;34.19;94257.44;5095454;28;20495;-68
2021/11/06 10:42:55;;;;;;;20.30;8.10;;;;;;;26.65;34.52;94248.44;5097230;28;20065;-65
2021/11/06 10:45:24;;;;;;;20.35;8.27;;;;;;;26.81;34.79;94257.72;5096946;28;20099;-66
2021/11/06 10:47:59;;;;;;;17.00;8.10;;;;;;;26.82;33.96;94261.28;5094972;28;20040;-65
2021/11/06 10:50:44;;;;;;;14.70;8.82;;;;;;;26.82;34.89;94266.97;5096502;28;20023;-64
2021/11/06 10:53:12;;;;;;;15.52;7.05;;;;;;;26.59;34.60;94265.16;5097782;28;20031;-66
2021/11/06 10:55:40;;;;;;;22.55;8.23;;;;;;;26.29;35.38;94269.38;5100213;28;20047;-63
2021/11/06 10:58:23;;;;;;;17.73;7.30;;;;;;;26.25;35.75;94261.41;5089228;28;20024;-68
2021/11/06 11:01:13;;;;;;;16.52;8.18;;;;;;;26.14;35.83;94264.41;5089863;28;20024;-66
2021/11/06 11:03:41;;;;;;;21.00;8.07;;;;;;;26.03;35.93;94253.91;5089837;28;20036;-66
2021/11/06 11:06:10;;;;;;;25.48;7.82;;;;;;;26.25;35.10;94260.66;5090136;28;20586;-65
2021/11/06 11:08:47;;;;;;;34.10;8.63;;;;;;;26.31;35.86;94261.69;5104349;28;20536;-66
2021/11/06 11:11:13;;;;;;;23.13;7.93;;;;;;;26.51;34.75;94258.38;5110500;28;20030;-66
2021/11/06 11:13:49;;;;;;;18.50;8.50;;;;;;;26.22;35.16;94268.34;5110236;28;20584;-67
2021/11/06 11:16:16;;;;;;;13.80;8.02;;;;;;;26.44;34.83;94263.03;5110034;28;20036;-66
2021/11/06 11:18:46;;;;;;;16.63;10.48;;;;;;;25.90;35.50;94263.16;5110312;28;20028;-67
2021/11/06 11:21:36;;;;;;;25.38;11.75;;;;;;;25.43;37.55;94260.78;5110998;28;20114;-66